createdAt,value
2018-12-10T00:00:02.386Z,997.89
2018-12-10T00:01:02.338Z,997.94
2018-12-10T00:02:02.290Z,997.93
2018-12-10T00:03:02.242Z,997.95
2018-12-10T00:04:02.196Z,998.01
2018-12-10T00:05:02.163Z,998.08
2018-12-10T00:06:02.094Z,998.04
2018-12-10T00:07:02.046Z,998.04
2018-12-10T00:08:01.998Z,998.03
2018-12-10T00:09:01.947Z,998.11
2018-12-10T00:10:01.898Z,998.04
2018-12-10T00:11:01.849Z,998.04
2018-12-10T00:12:01.799Z,998.05
2018-12-10T00:13:01.751Z,998.10
2018-12-10T00:14:01.703Z,998.12
2018-12-10T00:15:01.654Z,998.15
2018-12-10T00:16:01.607Z,998.09
2018-12-10T00:17:01.557Z,998.12
2018-12-10T00:18:01.507Z,998.16
2018-12-10T00:19:01.457Z,998.16
2018-12-10T00:20:01.408Z,998.21
2018-12-10T00:21:01.359Z,998.18
2018-12-10T00:22:01.311Z,998.23
2018-12-10T00:23:01.260Z,998.25
2018-12-10T00:24:01.213Z,998.28
2018-12-10T00:25:01.167Z,998.29
2018-12-10T00:26:01.115Z,998.34
2018-12-10T00:27:01.066Z,998.28
2018-12-10T00:28:01.017Z,998.37
2018-12-10T00:29:00.967Z,998.36
2018-12-10T00:30:00.920Z,998.37
2018-12-10T00:31:00.870Z,998.37
2018-12-10T00:32:00.821Z,998.40
2018-12-10T00:33:00.773Z,998.46
2018-12-10T00:34:00.798Z,998.40
2018-12-10T00:35:00.674Z,998.45
2018-12-10T00:36:00.624Z,998.45
2018-12-10T00:37:00.577Z,998.48
2018-12-10T00:38:00.529Z,998.54
2018-12-10T00:39:00.478Z,998.52
2018-12-10T00:40:00.430Z,998.59
2018-12-10T00:41:00.697Z,998.65
2018-12-10T00:42:00.336Z,998.66
2018-12-10T00:43:00.282Z,998.67
2018-12-10T00:44:00.234Z,998.64
2018-12-10T00:45:00.185Z,998.69
2018-12-10T00:46:00.143Z,998.77
2018-12-10T00:47:00.086Z,998.72
2018-12-10T00:48:00.038Z,998.76
2018-12-10T00:48:59.991Z,998.75
2018-12-10T00:49:59.939Z,998.79
2018-12-10T00:50:59.890Z,998.79
2018-12-10T00:51:59.842Z,998.81
2018-12-10T00:52:59.792Z,998.81
2018-12-10T00:53:59.747Z,998.80
2018-12-10T00:54:59.696Z,998.82
2018-12-10T00:55:59.646Z,998.86
2018-12-10T00:56:59.597Z,998.91
2018-12-10T00:57:59.547Z,998.94
2018-12-10T00:58:59.499Z,998.92
2018-12-10T00:59:59.500Z,999.01
2018-12-10T01:00:59.401Z,999.02
2018-12-10T01:01:59.351Z,999.06
2018-12-10T01:02:59.303Z,999.04
2018-12-10T01:03:59.254Z,999.09
2018-12-10T01:04:59.206Z,999.10
2018-12-10T01:05:59.156Z,999.16
2018-12-10T01:06:59.106Z,999.16
2018-12-10T01:07:59.058Z,999.08
2018-12-10T01:08:59.009Z,999.19
2018-12-10T01:09:58.961Z,999.15
2018-12-10T01:10:58.912Z,999.14
2018-12-10T01:11:58.862Z,999.11
2018-12-10T01:12:58.814Z,999.17
2018-12-10T01:13:58.765Z,999.18
2018-12-10T01:14:58.716Z,999.15
2018-12-10T01:15:58.667Z,999.21
2018-12-10T01:16:58.618Z,999.19
2018-12-10T01:17:58.569Z,999.24
2018-12-10T01:18:58.519Z,999.24
2018-12-10T01:19:58.469Z,999.31
2018-12-10T01:20:58.422Z,999.26
2018-12-10T01:21:58.373Z,999.24
2018-12-10T01:22:58.323Z,999.27
2018-12-10T01:23:58.324Z,999.29
2018-12-10T01:24:58.225Z,999.35
2018-12-10T01:25:58.176Z,999.31
2018-12-10T01:26:58.128Z,999.39
2018-12-10T01:27:58.079Z,999.39
2018-12-10T01:28:58.037Z,999.34
2018-12-10T01:29:57.981Z,999.42
2018-12-10T01:30:57.933Z,999.50
2018-12-10T01:31:57.881Z,999.51
2018-12-10T01:32:57.834Z,999.52
2018-12-10T01:33:57.786Z,999.51
2018-12-10T01:34:57.735Z,999.58
2018-12-10T01:35:57.686Z,999.52
2018-12-10T01:36:57.638Z,999.55
2018-12-10T01:37:57.589Z,999.56
2018-12-10T01:38:57.539Z,999.57
2018-12-10T01:39:57.491Z,999.62
2018-12-10T01:40:57.441Z,999.61
2018-12-10T01:41:57.393Z,999.68
2018-12-10T01:42:57.343Z,999.62
2018-12-10T01:43:57.294Z,999.62
2018-12-10T01:44:57.245Z,999.62
2018-12-10T01:45:57.197Z,999.65
2018-12-10T01:46:57.153Z,999.69
2018-12-10T01:47:57.098Z,999.68
2018-12-10T01:48:57.050Z,999.71
2018-12-10T01:49:57.001Z,999.81
2018-12-10T01:50:56.951Z,999.76
2018-12-10T01:51:56.902Z,999.80
2018-12-10T01:52:56.854Z,999.83
2018-12-10T01:53:56.804Z,999.72
2018-12-10T01:54:56.755Z,999.89
2018-12-10T01:55:56.706Z,999.90
2018-12-10T01:56:56.658Z,999.87
2018-12-10T01:57:56.609Z,999.89
2018-12-10T01:58:56.558Z,999.92
2018-12-10T01:59:56.510Z,999.92
2018-12-10T02:00:56.461Z,999.92
2018-12-10T02:01:56.412Z,999.93
2018-12-10T02:02:56.362Z,999.96
2018-12-10T02:03:56.314Z,999.96
2018-12-10T02:04:56.264Z,999.98
2018-12-10T02:05:56.216Z,1000.00
2018-12-10T02:06:56.165Z,1000.06
2018-12-10T02:07:56.117Z,999.95
2018-12-10T02:08:56.069Z,999.99
2018-12-10T02:09:56.020Z,999.98
2018-12-10T02:10:55.972Z,1000.01
2018-12-10T02:11:55.920Z,1000.06
2018-12-10T02:12:55.873Z,999.96
2018-12-10T02:13:55.829Z,999.98
2018-12-10T02:14:55.774Z,1000.05
2018-12-10T02:15:55.725Z,1000.13
2018-12-10T02:16:55.679Z,1000.11
2018-12-10T02:17:55.627Z,1000.13
2018-12-10T02:18:55.578Z,1000.12
2018-12-10T02:19:55.529Z,1000.16
2018-12-10T02:20:55.480Z,1000.08
2018-12-10T02:21:55.432Z,1000.14
2018-12-10T02:22:55.382Z,1000.14
2018-12-10T02:23:55.334Z,1000.16
2018-12-10T02:24:55.284Z,1000.17
2018-12-10T02:25:55.235Z,1000.18
2018-12-10T02:26:55.185Z,1000.18
2018-12-10T02:27:55.139Z,1000.17
2018-12-10T02:28:55.090Z,1000.17
2018-12-10T02:29:55.038Z,1000.18
2018-12-10T02:30:54.990Z,1000.09
2018-12-10T02:31:54.940Z,1000.23
2018-12-10T02:32:54.891Z,1000.17
2018-12-10T02:33:54.906Z,1000.16
2018-12-10T02:34:54.794Z,1000.20
2018-12-10T02:35:54.771Z,1000.18
2018-12-10T02:36:54.697Z,1000.18
2018-12-10T02:37:54.646Z,1000.17
2018-12-10T02:38:54.600Z,1000.22
2018-12-10T02:39:54.549Z,1000.26
2018-12-10T02:40:54.499Z,1000.21
2018-12-10T02:41:54.452Z,1000.26
2018-12-10T02:42:54.402Z,1000.31
2018-12-10T02:43:54.354Z,1000.32
2018-12-10T02:44:54.304Z,1000.32
2018-12-10T02:45:54.259Z,1000.32
2018-12-10T02:46:54.205Z,1000.38
2018-12-10T02:47:54.155Z,1000.40
2018-12-10T02:48:54.108Z,1000.45
2018-12-10T02:49:54.061Z,1000.42
2018-12-10T02:50:54.013Z,1000.48
2018-12-10T02:51:53.960Z,1000.46
2018-12-10T02:52:53.911Z,1000.49
2018-12-10T02:53:53.862Z,1000.50
2018-12-10T02:54:53.814Z,1000.56
2018-12-10T02:55:53.764Z,1000.56
2018-12-10T02:56:53.715Z,1000.56
2018-12-10T02:57:53.667Z,1000.55
2018-12-10T02:58:53.621Z,1000.50
2018-12-10T02:59:53.568Z,1000.51
2018-12-10T03:00:53.518Z,1000.60
2018-12-10T03:01:53.474Z,1000.56
2018-12-10T03:02:53.420Z,1000.61
2018-12-10T03:03:53.370Z,1000.54
2018-12-10T03:04:53.322Z,1000.50
2018-12-10T03:05:53.275Z,1000.51
2018-12-10T03:06:53.225Z,1000.46
2018-12-10T03:07:53.175Z,1000.48
2018-12-10T03:08:53.126Z,1000.52
2018-12-10T03:09:53.078Z,1000.56
2018-12-10T03:10:53.027Z,1000.49
2018-12-10T03:11:52.980Z,1000.53
2018-12-10T03:12:52.930Z,1000.62
2018-12-10T03:13:52.881Z,1000.53
2018-12-10T03:14:52.832Z,1000.58
2018-12-10T03:15:52.783Z,1000.53
2018-12-10T03:16:52.734Z,1000.58
2018-12-10T03:17:53.005Z,1000.58
2018-12-10T03:18:52.954Z,1000.61
2018-12-10T03:19:52.586Z,1000.56
2018-12-10T03:20:53.000Z,1000.68
2018-12-10T03:21:52.488Z,1000.72
2018-12-10T03:22:52.440Z,1000.75
2018-12-10T03:23:52.390Z,1000.74
2018-12-10T03:24:52.341Z,1000.76
2018-12-10T03:25:52.293Z,1000.73
2018-12-10T03:26:52.243Z,1000.81
2018-12-10T03:27:52.194Z,1000.79
2018-12-10T03:28:52.145Z,1000.80
2018-12-10T03:29:52.096Z,1000.81
2018-12-10T03:30:52.047Z,1000.79
2018-12-10T03:31:52.000Z,1000.88
2018-12-10T03:32:52.071Z,1000.86
2018-12-10T03:33:51.900Z,1000.87
2018-12-10T03:34:51.850Z,1000.93
2018-12-10T03:35:51.801Z,1000.94
2018-12-10T03:36:51.758Z,1000.92
2018-12-10T03:37:51.702Z,1000.94
2018-12-10T03:38:51.653Z,1000.94
2018-12-10T03:39:51.604Z,1000.92
2018-12-10T03:40:51.556Z,1001.01
2018-12-10T03:41:51.508Z,1000.98
2018-12-10T03:42:51.457Z,1000.97
2018-12-10T03:43:51.409Z,1000.97
2018-12-10T03:44:51.360Z,1001.02
2018-12-10T03:45:51.309Z,1001.05
2018-12-10T03:46:51.260Z,1001.04
2018-12-10T03:47:51.212Z,1001.04
2018-12-10T03:48:51.166Z,1001.10
2018-12-10T03:49:51.114Z,1001.17
2018-12-10T03:50:51.065Z,1001.17
2018-12-10T03:51:51.016Z,1001.15
2018-12-10T03:52:50.966Z,1001.16
2018-12-10T03:53:50.919Z,1001.13
2018-12-10T03:54:50.868Z,1001.22
2018-12-10T03:55:50.824Z,1001.20
2018-12-10T03:56:50.781Z,1001.25
2018-12-10T03:57:50.722Z,1001.28
2018-12-10T03:58:50.672Z,1001.32
2018-12-10T03:59:50.624Z,1001.31
2018-12-10T04:00:50.575Z,1001.29
2018-12-10T04:01:50.526Z,1001.28
2018-12-10T04:02:50.476Z,1001.38
2018-12-10T04:03:50.427Z,1001.41
2018-12-10T04:04:50.378Z,1001.42
2018-12-10T04:05:50.331Z,1001.46
2018-12-10T04:06:50.279Z,1001.39
2018-12-10T04:07:50.232Z,1001.41
2018-12-10T04:08:50.182Z,1001.40
2018-12-10T04:09:50.134Z,1001.47
2018-12-10T04:10:50.083Z,1001.50
2018-12-10T04:11:50.034Z,1001.51
2018-12-10T04:12:49.985Z,1001.52
2018-12-10T04:13:49.937Z,1001.63
2018-12-10T04:14:49.887Z,1001.62
2018-12-10T04:15:49.838Z,1001.60
2018-12-10T04:16:49.790Z,1001.61
2018-12-10T04:17:49.750Z,1001.59
2018-12-10T04:18:49.698Z,1001.61
2018-12-10T04:19:49.642Z,1001.61
2018-12-10T04:20:49.594Z,1001.70
2018-12-10T04:21:49.544Z,1001.59
2018-12-10T04:22:49.494Z,1001.55
2018-12-10T04:23:49.449Z,1001.63
2018-12-10T04:24:49.400Z,1001.50
2018-12-10T04:25:49.350Z,1001.55
2018-12-10T04:26:49.299Z,1001.51
2018-12-10T04:27:49.250Z,1001.59
2018-12-10T04:28:49.201Z,1001.73
2018-12-10T04:29:49.154Z,1001.69
2018-12-10T04:30:49.136Z,1001.68
2018-12-10T04:31:49.053Z,1001.74
2018-12-10T04:32:49.010Z,1001.73
2018-12-10T04:33:48.956Z,1001.71
2018-12-10T04:34:48.907Z,1001.72
2018-12-10T04:35:48.858Z,1001.71
2018-12-10T04:36:48.810Z,1001.79
2018-12-10T04:37:48.760Z,1001.78
2018-12-10T04:38:48.710Z,1001.87
2018-12-10T04:39:48.662Z,1001.78
2018-12-10T04:40:48.613Z,1001.89
2018-12-10T04:41:48.564Z,1001.89
2018-12-10T04:42:48.513Z,1001.84
2018-12-10T04:43:48.465Z,1001.87
2018-12-10T04:44:48.416Z,1001.88
2018-12-10T04:45:48.370Z,1001.88
2018-12-10T04:46:48.317Z,1001.96
2018-12-10T04:47:48.269Z,1001.96
2018-12-10T04:48:48.220Z,1001.96
2018-12-10T04:49:48.170Z,1001.97
2018-12-10T04:50:48.121Z,1001.91
2018-12-10T04:51:48.073Z,1001.96
2018-12-10T04:52:48.023Z,1001.92
2018-12-10T04:53:47.974Z,1001.97
2018-12-10T04:54:47.925Z,1001.94
2018-12-10T04:55:47.876Z,1001.95
2018-12-10T04:56:47.827Z,1002.02
2018-12-10T04:57:47.778Z,1001.92
2018-12-10T04:58:47.728Z,1002.00
2018-12-10T04:59:52.727Z,1001.96
2018-12-10T05:00:47.630Z,1002.04
2018-12-10T05:01:47.588Z,1002.08
2018-12-10T05:02:47.531Z,1002.03
2018-12-10T05:03:47.484Z,1002.01
2018-12-10T05:04:47.433Z,1002.14
2018-12-10T05:05:47.387Z,1002.16
2018-12-10T05:06:47.336Z,1002.11
2018-12-10T05:07:47.287Z,1002.16
2018-12-10T05:08:47.237Z,1002.19
2018-12-10T05:09:47.189Z,1002.15
2018-12-10T05:10:47.144Z,1002.22
2018-12-10T05:11:47.090Z,1002.14
2018-12-10T05:12:47.042Z,1002.30
2018-12-10T05:13:46.991Z,1002.22
2018-12-10T05:14:46.944Z,1002.22
2018-12-10T05:15:46.894Z,1002.29
2018-12-10T05:16:46.845Z,1002.27
2018-12-10T05:17:46.796Z,1002.30
2018-12-10T05:18:46.748Z,1002.33
2018-12-10T05:19:46.698Z,1002.34
2018-12-10T05:20:46.650Z,1002.28
2018-12-10T05:21:46.602Z,1002.30
2018-12-10T05:22:46.550Z,1002.39
2018-12-10T05:23:46.501Z,1002.36
2018-12-10T05:24:46.452Z,1002.35
2018-12-10T05:25:46.405Z,1002.40
2018-12-10T05:26:46.354Z,1002.30
2018-12-10T05:27:46.305Z,1002.44
2018-12-10T05:28:46.258Z,1002.37
2018-12-10T05:29:46.208Z,1002.41
2018-12-10T05:30:46.157Z,1002.46
2018-12-10T05:31:46.108Z,1002.46
2018-12-10T05:32:46.060Z,1002.42
2018-12-10T05:33:46.011Z,1002.44
2018-12-10T05:34:45.962Z,1002.49
2018-12-10T05:35:45.911Z,1002.44
2018-12-10T05:36:45.865Z,1002.46
2018-12-10T05:37:45.815Z,1002.43
2018-12-10T05:38:45.764Z,1002.55
2018-12-10T05:39:45.716Z,1002.53
2018-12-10T05:40:45.667Z,1002.57
2018-12-10T05:41:45.618Z,1002.56
2018-12-10T05:42:45.568Z,1002.53
2018-12-10T05:43:45.520Z,1002.53
2018-12-10T05:44:45.470Z,1002.47
2018-12-10T05:45:45.423Z,1002.59
2018-12-10T05:46:45.373Z,1002.68
2018-12-10T05:47:45.323Z,1002.64
2018-12-10T05:48:45.274Z,1002.67
2018-12-10T05:49:45.226Z,1002.67
2018-12-10T05:50:45.175Z,1002.64
2018-12-10T05:51:45.129Z,1002.63
2018-12-10T05:52:45.076Z,1002.67
2018-12-10T05:53:45.029Z,1002.72
2018-12-10T05:54:44.979Z,1002.67
2018-12-10T05:55:44.931Z,1002.80
2018-12-10T05:56:44.882Z,1002.72
2018-12-10T05:57:44.831Z,1002.76
2018-12-10T05:58:44.783Z,1002.77
2018-12-10T05:59:44.734Z,1002.76
2018-12-10T06:00:44.683Z,1002.78
2018-12-10T06:01:44.636Z,1002.71
2018-12-10T06:02:44.586Z,1002.69
2018-12-10T06:03:44.537Z,1002.75
2018-12-10T06:04:44.487Z,1002.73
2018-12-10T06:05:44.440Z,1002.80
2018-12-10T06:06:44.390Z,1002.84
2018-12-10T06:07:44.341Z,1002.76
2018-12-10T06:08:44.292Z,1002.86
2018-12-10T06:09:44.342Z,1002.78
2018-12-10T06:10:44.193Z,1002.77
2018-12-10T06:11:44.144Z,1002.82
2018-12-10T06:12:44.095Z,1002.89
2018-12-10T06:13:44.046Z,1002.88
2018-12-10T06:14:43.996Z,1002.91
2018-12-10T06:15:43.950Z,1002.92
2018-12-10T06:16:43.899Z,1002.98
2018-12-10T06:17:43.850Z,1002.95
2018-12-10T06:18:43.800Z,1002.97
2018-12-10T06:19:43.750Z,1002.99
2018-12-10T06:20:43.703Z,1002.90
2018-12-10T06:21:43.659Z,1002.99
2018-12-10T06:22:43.603Z,1003.02
2018-12-10T06:23:43.555Z,1003.10
2018-12-10T06:24:43.506Z,1003.06
2018-12-10T06:25:43.456Z,1003.12
2018-12-10T06:26:43.408Z,1003.02
2018-12-10T06:27:43.359Z,1003.07
2018-12-10T06:28:43.830Z,1003.14
2018-12-10T06:29:43.261Z,1003.22
2018-12-10T06:30:43.211Z,1003.22
2018-12-10T06:31:43.162Z,1003.25
2018-12-10T06:32:43.113Z,1003.24
2018-12-10T06:33:43.068Z,1003.18
2018-12-10T06:34:43.014Z,1003.23
2018-12-10T06:35:42.965Z,1003.16
2018-12-10T06:36:42.917Z,1003.31
2018-12-10T06:37:42.868Z,1003.23
2018-12-10T06:38:42.818Z,1003.25
2018-12-10T06:39:42.769Z,1003.35
2018-12-10T06:40:42.720Z,1003.34
2018-12-10T06:41:42.671Z,1003.29
2018-12-10T06:42:42.620Z,1003.27
2018-12-10T06:43:42.575Z,1003.30
2018-12-10T06:44:42.528Z,1003.28
2018-12-10T06:45:42.473Z,1003.35
2018-12-10T06:46:42.431Z,1003.41
2018-12-10T06:47:42.376Z,1003.42
2018-12-10T06:48:42.327Z,1003.49
2018-12-10T06:49:42.279Z,1003.48
2018-12-10T06:50:42.228Z,1003.52
2018-12-10T06:51:42.179Z,1003.54
2018-12-10T06:52:42.130Z,1003.58
2018-12-10T06:53:42.081Z,1003.60
2018-12-10T06:54:42.031Z,1003.63
2018-12-10T06:55:41.982Z,1003.73
2018-12-10T06:56:41.937Z,1003.72
2018-12-10T06:57:41.886Z,1003.74
2018-12-10T06:58:41.834Z,1003.73
2018-12-10T06:59:41.786Z,1003.73
2018-12-10T07:00:41.737Z,1003.84
2018-12-10T07:01:41.688Z,1003.71
2018-12-10T07:02:41.638Z,1003.69
2018-12-10T07:03:41.591Z,1003.70
2018-12-10T07:04:41.541Z,1003.71
2018-12-10T07:05:41.496Z,1003.78
2018-12-10T07:06:41.442Z,1003.76
2018-12-10T07:07:41.396Z,1003.80
2018-12-10T07:08:41.344Z,1003.73
2018-12-10T07:09:41.295Z,1003.76
2018-12-10T07:10:41.244Z,1003.81
2018-12-10T07:11:41.195Z,1003.73
2018-12-10T07:12:41.147Z,1003.79
2018-12-10T07:13:41.097Z,1003.76
2018-12-10T07:14:41.050Z,1003.78
2018-12-10T07:15:40.999Z,1003.79
2018-12-10T07:16:40.951Z,1003.80
2018-12-10T07:17:40.902Z,1003.81
2018-12-10T07:18:40.852Z,1003.78
2018-12-10T07:19:40.802Z,1003.89
2018-12-10T07:20:40.754Z,1003.90
2018-12-10T07:21:40.705Z,1003.86
2018-12-10T07:22:40.663Z,1003.83
2018-12-10T07:23:40.607Z,1003.82
2018-12-10T07:24:40.557Z,1003.84
2018-12-10T07:25:40.509Z,1003.91
2018-12-10T07:26:40.459Z,1003.91
2018-12-10T07:27:40.410Z,1003.96
2018-12-10T07:28:40.360Z,1003.98
2018-12-10T07:29:40.314Z,1003.94
2018-12-10T07:30:41.580Z,1003.96
2018-12-10T07:31:40.213Z,1003.90
2018-12-10T07:32:40.165Z,1003.97
2018-12-10T07:33:40.116Z,1003.99
2018-12-10T07:34:41.424Z,1004.02
2018-12-10T07:35:40.017Z,1003.99
2018-12-10T07:36:39.969Z,1003.92
2018-12-10T07:37:39.919Z,1004.03
2018-12-10T07:38:39.871Z,1003.94
2018-12-10T07:39:39.821Z,1003.99
2018-12-10T07:40:39.772Z,1004.01
2018-12-10T07:41:39.727Z,1004.06
2018-12-10T07:42:39.673Z,1004.09
2018-12-10T07:43:39.624Z,1004.08
2018-12-10T07:44:39.574Z,1004.06
2018-12-10T07:45:39.527Z,1004.01
2018-12-10T07:46:39.477Z,1004.09
2018-12-10T07:47:39.428Z,1004.11
2018-12-10T07:48:39.378Z,1004.07
2018-12-10T07:49:39.330Z,1004.11
2018-12-10T07:50:39.282Z,1004.16
2018-12-10T07:51:39.232Z,1004.19
2018-12-10T07:52:39.182Z,1004.18
2018-12-10T07:53:39.134Z,1004.15
2018-12-10T07:54:39.085Z,1004.23
2018-12-10T07:55:39.034Z,1004.19
2018-12-10T07:56:38.992Z,1004.18
2018-12-10T07:57:38.938Z,1004.20
2018-12-10T07:58:38.888Z,1004.22
2018-12-10T07:59:38.888Z,1004.22
2018-12-10T08:00:38.789Z,1004.16
2018-12-10T08:01:38.741Z,1004.18
2018-12-10T08:02:38.691Z,1004.18
2018-12-10T08:03:38.643Z,1004.15
2018-12-10T08:04:38.594Z,1004.18
2018-12-10T08:05:38.544Z,1004.20
2018-12-10T08:06:38.495Z,1004.16
2018-12-10T08:07:38.445Z,1004.13
2018-12-10T08:08:38.397Z,1004.18
2018-12-10T08:09:38.353Z,1004.16
2018-12-10T08:10:38.299Z,1004.21
2018-12-10T08:11:38.249Z,1004.21
2018-12-10T08:12:38.200Z,1004.21
2018-12-10T08:13:38.152Z,1004.17
2018-12-10T08:14:38.103Z,1004.23
2018-12-10T08:15:38.054Z,1004.29
2018-12-10T08:16:38.003Z,1004.32
2018-12-10T08:17:37.956Z,1004.24
2018-12-10T08:18:37.908Z,1004.32
2018-12-10T08:19:37.857Z,1004.26
2018-12-10T08:20:37.809Z,1004.34
2018-12-10T08:21:37.760Z,1004.40
2018-12-10T08:22:37.713Z,1004.38
2018-12-10T08:23:37.664Z,1004.46
2018-12-10T08:24:37.612Z,1004.31
2018-12-10T08:25:37.564Z,1004.39
2018-12-10T08:26:37.516Z,1004.43
2018-12-10T08:27:37.465Z,1004.33
2018-12-10T08:28:37.417Z,1004.39
2018-12-10T08:29:37.368Z,1004.44
2018-12-10T08:30:37.319Z,1004.32
2018-12-10T08:31:37.268Z,1004.33
2018-12-10T08:32:37.220Z,1004.32
2018-12-10T08:33:37.172Z,1004.32
2018-12-10T08:34:41.381Z,1004.39
2018-12-10T08:35:40.834Z,1004.32
2018-12-10T08:36:37.025Z,1004.38
2018-12-10T08:37:36.975Z,1004.34
2018-12-10T08:38:36.927Z,1004.38
2018-12-10T08:39:36.878Z,1004.40
2018-12-10T08:40:36.831Z,1004.39
2018-12-10T08:41:36.781Z,1004.38
2018-12-10T08:42:36.734Z,1004.41
2018-12-10T08:43:36.681Z,1004.37
2018-12-10T08:44:36.635Z,1004.43
2018-12-10T08:45:36.585Z,1004.52
2018-12-10T08:46:36.535Z,1004.44
2018-12-10T08:47:36.487Z,1004.42
2018-12-10T08:48:36.442Z,1004.49
2018-12-10T08:49:36.390Z,1004.47
2018-12-10T08:50:36.343Z,1004.41
2018-12-10T08:51:36.291Z,1004.48
2018-12-10T08:52:36.245Z,1004.42
2018-12-10T08:53:36.197Z,1004.41
2018-12-10T08:54:36.143Z,1004.41
2018-12-10T08:55:36.094Z,1004.46
2018-12-10T08:56:36.049Z,1004.42
2018-12-10T08:57:35.998Z,1004.45
2018-12-10T08:58:35.949Z,1004.49
2018-12-10T08:59:35.902Z,1004.50
2018-12-10T09:00:35.852Z,1004.53
2018-12-10T09:01:35.802Z,1004.47
2018-12-10T09:02:35.754Z,1004.52
2018-12-10T09:03:35.703Z,1004.52
2018-12-10T09:04:36.684Z,1004.49
2018-12-10T09:05:35.607Z,1004.50
2018-12-10T09:06:35.568Z,1004.52
2018-12-10T09:07:35.514Z,1004.57
2018-12-10T09:08:35.459Z,1004.59
2018-12-10T09:09:35.414Z,1004.61
2018-12-10T09:10:35.364Z,1004.64
2018-12-10T09:11:35.313Z,1004.59
2018-12-10T09:12:35.265Z,1004.64
2018-12-10T09:13:35.218Z,1004.69
2018-12-10T09:14:35.169Z,1004.67
2018-12-10T09:15:35.120Z,1004.67
2018-12-10T09:16:35.079Z,1004.73
2018-12-10T09:17:35.019Z,1004.71
2018-12-10T09:18:34.970Z,1004.70
2018-12-10T09:19:34.923Z,1004.73
2018-12-10T09:20:34.873Z,1004.71
2018-12-10T09:21:34.826Z,1004.68
2018-12-10T09:22:34.775Z,1004.77
2018-12-10T09:23:34.726Z,1004.73
2018-12-10T09:24:34.678Z,1004.77
2018-12-10T09:25:34.632Z,1004.77
2018-12-10T09:26:34.581Z,1004.78
2018-12-10T09:27:34.531Z,1004.75
2018-12-10T09:28:34.484Z,1004.78
2018-12-10T09:29:34.518Z,1004.79
2018-12-10T09:30:34.386Z,1004.80
2018-12-10T09:31:34.337Z,1004.88
2018-12-10T09:32:34.288Z,1004.88
2018-12-10T09:33:34.240Z,1004.77
2018-12-10T09:34:34.190Z,1004.87
2018-12-10T09:35:34.141Z,1004.89
2018-12-10T09:36:34.094Z,1004.84
2018-12-10T09:37:34.045Z,1004.91
2018-12-10T09:38:33.995Z,1004.95
2018-12-10T09:39:33.997Z,1004.90
2018-12-10T09:40:33.898Z,1004.88
2018-12-10T09:41:33.850Z,1004.86
2018-12-10T09:42:33.802Z,1004.87
2018-12-10T09:43:33.751Z,1004.91
2018-12-10T09:44:33.702Z,1004.90
2018-12-10T09:45:33.661Z,1004.96
2018-12-10T09:46:33.605Z,1004.91
2018-12-10T09:47:33.557Z,1004.81
2018-12-10T09:48:33.509Z,1004.84
2018-12-10T09:49:33.459Z,1004.95
2018-12-10T09:50:33.410Z,1004.96
2018-12-10T09:51:33.362Z,1005.07
2018-12-10T09:52:33.313Z,1004.97
2018-12-10T09:53:33.265Z,1004.98
2018-12-10T09:54:33.216Z,1004.98
2018-12-10T09:55:33.166Z,1005.09
2018-12-10T09:56:33.121Z,1005.09
2018-12-10T09:57:33.070Z,1005.05
2018-12-10T09:58:33.021Z,1004.95
2018-12-10T09:59:32.972Z,1005.06
2018-12-10T10:00:32.929Z,1004.99
2018-12-10T10:01:32.874Z,1005.04
2018-12-10T10:02:32.829Z,1005.05
2018-12-10T10:03:32.777Z,1005.05
2018-12-10T10:04:32.729Z,1005.11
2018-12-10T10:05:32.680Z,1005.09
2018-12-10T10:06:32.629Z,1005.18
2018-12-10T10:07:32.582Z,1005.13
2018-12-10T10:08:32.535Z,1005.15
2018-12-10T10:09:32.484Z,1005.14
2018-12-10T10:10:32.436Z,1005.12
2018-12-10T10:11:32.387Z,1005.14
2018-12-10T10:12:32.339Z,1005.13
2018-12-10T10:13:32.289Z,1005.11
2018-12-10T10:14:32.241Z,1005.15
2018-12-10T10:15:32.192Z,1005.22
2018-12-10T10:16:32.144Z,1005.14
2018-12-10T10:17:32.095Z,1005.20
2018-12-10T10:18:32.048Z,1005.21
2018-12-10T10:19:32.001Z,1005.22
2018-12-10T10:20:31.948Z,1005.28
2018-12-10T10:21:31.900Z,1005.17
2018-12-10T10:22:31.851Z,1005.20
2018-12-10T10:23:31.802Z,1005.26
2018-12-10T10:24:31.753Z,1005.24
2018-12-10T10:25:31.704Z,1005.25
2018-12-10T10:26:31.655Z,1005.26
2018-12-10T10:27:31.657Z,1005.25
2018-12-10T10:28:31.557Z,1005.26
2018-12-10T10:29:31.509Z,1005.20
2018-12-10T10:30:31.459Z,1005.25
2018-12-10T10:31:31.623Z,1005.23
2018-12-10T10:32:31.362Z,1005.23
2018-12-10T10:33:32.489Z,1005.22
2018-12-10T10:34:31.269Z,1005.26
2018-12-10T10:35:31.216Z,1005.37
2018-12-10T10:36:31.167Z,1005.18
2018-12-10T10:37:31.119Z,1005.25
2018-12-10T10:38:31.071Z,1005.26
2018-12-10T10:39:31.021Z,1005.25
2018-12-10T10:40:30.973Z,1005.17
2018-12-10T10:41:31.428Z,1005.21
2018-12-10T10:42:30.874Z,1005.21
2018-12-10T10:43:30.828Z,1005.18
2018-12-10T10:44:30.778Z,1005.18
2018-12-10T10:45:34.693Z,1005.26
2018-12-10T10:46:30.679Z,1005.25
2018-12-10T10:47:30.631Z,1005.33
2018-12-10T10:48:30.582Z,1005.30
2018-12-10T10:49:30.534Z,1005.32
2018-12-10T10:50:30.535Z,1005.26
2018-12-10T10:51:30.437Z,1005.25
2018-12-10T10:52:33.340Z,1005.26
2018-12-10T10:53:30.340Z,1005.23
2018-12-10T10:54:30.291Z,1005.21
2018-12-10T10:55:30.242Z,1005.18
2018-12-10T10:56:30.193Z,1005.17
2018-12-10T10:57:31.441Z,1005.19
2018-12-10T10:58:30.095Z,1005.19
2018-12-10T10:59:30.049Z,1005.20
2018-12-10T11:00:29.999Z,1005.23
2018-12-10T11:01:29.950Z,1005.23
2018-12-10T11:02:29.903Z,1005.24
2018-12-10T11:03:29.854Z,1005.25
2018-12-10T11:04:37.389Z,1005.22
2018-12-10T11:05:29.759Z,1005.21
2018-12-10T11:06:29.709Z,1005.24
2018-12-10T11:07:29.661Z,1005.19
2018-12-10T11:08:29.613Z,1005.27
2018-12-10T11:09:29.564Z,1005.22
2018-12-10T11:10:29.516Z,1005.26
2018-12-10T11:11:29.468Z,1005.21
2018-12-10T11:12:29.421Z,1005.31
2018-12-10T11:13:29.372Z,1005.14
2018-12-10T11:14:29.323Z,1005.20
2018-12-10T11:15:29.273Z,1005.27
2018-12-10T11:16:29.227Z,1005.16
2018-12-10T11:17:29.179Z,1005.22
2018-12-10T11:18:29.130Z,1005.16
2018-12-10T11:19:29.082Z,1005.14
2018-12-10T11:20:29.033Z,1005.15
2018-12-10T11:21:28.986Z,1005.11
2018-12-10T11:22:28.936Z,1005.18
2018-12-10T11:23:28.890Z,1005.19
2018-12-10T11:24:28.841Z,1005.21
2018-12-10T11:25:28.793Z,1005.20
2018-12-10T11:26:28.745Z,1005.23
2018-12-10T11:27:28.701Z,1005.15
2018-12-10T11:28:28.649Z,1005.26
2018-12-10T11:29:28.601Z,1005.19
2018-12-10T11:30:28.555Z,1005.25
2018-12-10T11:31:28.504Z,1005.19
2018-12-10T11:32:28.459Z,1005.29
2018-12-10T11:33:28.409Z,1005.21
2018-12-10T11:34:28.361Z,1005.23
2018-12-10T11:35:28.313Z,1005.23
2018-12-10T11:36:28.264Z,1005.23
2018-12-10T11:37:28.267Z,1005.28
2018-12-10T11:38:28.172Z,1005.20
2018-12-10T11:39:28.120Z,1005.28
2018-12-10T11:40:28.073Z,1005.31
2018-12-10T11:41:28.026Z,1005.23
2018-12-10T11:42:27.977Z,1005.28
2018-12-10T11:43:27.929Z,1005.23
2018-12-10T11:44:27.882Z,1005.26
2018-12-10T11:45:27.835Z,1005.25
2018-12-10T11:46:27.789Z,1005.25
2018-12-10T11:47:27.737Z,1005.23
2018-12-10T11:48:27.741Z,1005.24
2018-12-10T11:49:27.642Z,1005.27
2018-12-10T11:50:27.593Z,1005.17
2018-12-10T11:51:27.546Z,1005.20
2018-12-10T11:52:27.500Z,1005.21
2018-12-10T11:53:27.449Z,1005.17
2018-12-10T11:54:27.404Z,1005.21
2018-12-10T11:55:27.355Z,1005.32
2018-12-10T11:56:27.307Z,1005.21
2018-12-10T11:57:27.259Z,1005.27
2018-12-10T11:58:27.210Z,1005.28
2018-12-10T11:59:27.163Z,1005.34
2018-12-10T12:00:27.115Z,1005.23
2018-12-10T12:01:27.071Z,1005.28
2018-12-10T12:02:29.854Z,1005.24
2018-12-10T12:03:26.971Z,1005.26
2018-12-10T12:04:26.927Z,1005.29
2018-12-10T12:05:26.876Z,1005.29
2018-12-10T12:06:26.827Z,1005.28
2018-12-10T12:07:26.779Z,1005.29
2018-12-10T12:08:26.732Z,1005.26